createdAt,value
2023-04-27T00:15:55.272Z,10.33
2023-04-27T00:44:56.781Z,9.9
2023-04-27T01:13:57.093Z,9.23
2023-04-27T01:42:54.343Z,9.5
2023-04-27T02:11:51.054Z,9.87
2023-04-27T02:40:47.266Z,9.7
2023-04-27T03:09:45.899Z,9.81
2023-04-27T03:38:50.467Z,9.76
2023-04-27T04:07:48.578Z,9.71
2023-04-27T04:36:57.191Z,9.64
2023-04-27T05:05:59.350Z,9.4
2023-04-27T05:34:50.007Z,9.73
2023-04-27T06:03:47.008Z,9.96
2023-04-27T06:32:36.428Z,10.85
2023-04-27T07:01:37.640Z,11.27
2023-04-27T07:30:29.824Z,12.08
2023-04-27T07:59:40.745Z,12.38
2023-04-27T08:28:57.478Z,15.44
2023-04-27T08:58:13.519Z,16.07
2023-04-27T09:27:32.088Z,20.58
2023-04-27T09:56:34.236Z,21.29
2023-04-27T10:25:23.144Z,20.3
2023-04-27T10:54:31.253Z,20.33
2023-04-27T11:23:25.246Z,17.23
2023-04-27T11:52:45.225Z,19.28
2023-04-27T12:21:45.359Z,19.31
2023-04-27T12:50:53.674Z,19.75
2023-04-27T13:19:53.350Z,19.08
2023-04-27T13:48:59.505Z,19.29
2023-04-27T14:18:00.853Z,18.86
2023-04-27T14:46:56.819Z,19.36
2023-04-27T15:15:50.509Z,18.96
2023-04-27T15:44:46.533Z,19.94
2023-04-27T16:13:44.644Z,19.22
2023-04-27T16:42:45.135Z,19.14
2023-04-27T17:11:52.464Z,18.5
2023-04-27T17:40:57.173Z,18.1
2023-04-27T18:09:50.508Z,17.58
2023-04-27T18:38:51.295Z,17.05
2023-04-27T19:07:56.278Z,16.48
2023-04-27T19:36:59.219Z,16.51
2023-04-27T20:05:43.926Z,16.18
2023-04-27T20:34:23.521Z,15.81
2023-04-27T21:03:21.140Z,15.88
2023-04-27T21:31:55.286Z,15.78
2023-04-27T22:00:56.527Z,15.82
2023-04-27T22:29:59.768Z,15.52
2023-04-27T22:58:57.983Z,15.38
2023-04-27T23:27:53.306Z,15.1
2023-04-27T23:56:23.317Z,14.51
